Etusivu
METAR-TAF:

METAR-TAF

Lentoasemat :

Saint-Louis, Senegal

Leveyspiiri: 16-03N, Pituuspiiri: 016-27W, korkeus merenpinnasta: 4 m

Tämänhetkinen sää

Tämä raportti tehtiin 35 minuuttia sitten, kello 19.00 UTC
Tuuli 12 kn lännestä, vaihdellen lännen/lounaan ja luoteen välillä
Lämpötila 29°C
Kosteus 89%
Ilmanpaine 1011 hPa
Näkyvyys 10 km tai enemmän
ei pilviä alle 1500 m:ssä eikä cumulonimbus-pilviä

METAR: GOSS 221900Z 27012KT 250V310 CAVOK 29/27 Q1011

Aika: 19:35 (19:35 UTC)

Sääennuste

Tämä raportti tehtiin 2 tuntia ja 35 minuuttia sitten, kello 17.00 UTC
Ennuste voimassa 22. päivästä klo 18 UTC - 23. päivään klo 18 UTC
Tuuli 10 kn lännestä/lounaasta
Näkyvyys 10 km tai enemmän
Hajanaisia pilviä 1300 ft:n korkeudessa

TAF: GOSS 221700Z 2218/2318 25010KT 9999 SCT013

Säähavainnot ja -ennusteet yli 4000 lentoasemalta (METAR- ja TAF-raportit).

Käytössä olevat sääasemat on merkitty karttaan keltaisilla ja punaisilla pisteillä.

Aseta hiiri pisteen päälle nähdäksesi sääaseman nimen.

Klikkaa sitten nähdäksesi säähavainnot ja -ennusteet.

Kartan vaihtaminen: klikkaa mustalla rastilla varustettuja vihreitä pisteitä, niin voit zoomata sisään; viivalla varustettua vihreää pistettä, niin voit zoomata ulos tai vihreitä nuolia, niin pääset viereisille kartoille.


METAR-TAF: